Минеральные Воды, Russia

19 02, 2017 21:41 MSK (GMT +0300)
Mineralnyye Vody | | Change Station

В.н.у.м. 1030 ft 44.22 °N, 43.10 °E | Updated 11 minutes ago

Clear
Ясно
30 °F
Ощущается Как 26 °F
С
4
Ветер переменчевый Ветер от Ю-В

Сегодня
Высокий -- | Низкий -- °F
--% Вероятн. осадков
Вчера
Высокий -- | Низкий -- °F
Precip. -- дюймов
Давление 30.36 дюймов
Видимость 6.2 милиь
Облачность
Температура с учетом ветра 26 °F
Точка Росы 23 °F
Влажность воздуха 75%
Дождь 0.00 дюймов
Глубина снега Нет в наличии.
7:01 AM 5:42 PM
Четвертая четверть, 41% visible
METAR URMM 191830Z 13002MPS 9999 NSC M01/M05 Q1028 R12/000070 NOSIG RMK QFE743/0990
Давление 30.36 дюймов
Видимость 6.2 милиь
Облачность
Температура с учетом ветра 26 °F
Точка Росы 23 °F
Влажность воздуха 75%
Дождь 0.00 дюймов
Глубина снега Нет в наличии.
7:01 AM 5:42 PM
Четвертая четверть, 41% visible
METAR URMM 191830Z 13002MPS 9999 NSC M01/M05 Q1028 R12/000070 NOSIG RMK QFE743/0990

Get Your Daily Forecast Email!

Thanks for signing up!

Be on the lookout for a verification email in your inbox.

You'll start receiving the daily forecast at 8 AM.

×

10-Day Weather Forecast

×

Almanac

Астрономические явления

Feb. 19, 2017 Восход Закат
Настоящее время
Гражданские сумерки
Навигационные сумерки
Астрономические сумерки
Луна
Длительность светового времени
Продолжительность Дня
Tomorrow will be .
, % of the Moon is Illuminated

Сегодняшние Экстремальные Показания

Country Highs Country Lows

Community

WunderPhotos

Upload Photos

1,962,540 фотографии загружены!

WunderBlog® & News

Nearby

Качество воздуха

  Качество воздуха Индекс AQ Загрязнитель
Not available.

Глубина Снега

Station Depth Высота над уровнем моря

Сейсмическая активность

Город Distance Mag. Time & Date
Minimum magnitude displayed is 2.5.

Температура Прибрежных Вод

Место Температура

Stations

Ближайшие Погодные Станции

Местонахождение Темп. Температура с учетом ветра Точка Росы Влажность воздуха Ветер Precip. В.н.у.м. Последняя сводка Тип